Time;durP1;ratioP1;P1;durP2;ratioP2;P2;SDS_P1;SDS_P2;PMS_P1;PMS_P2;Temp;Humidity;BMP_temperature;BMP_pressure;BME280_temperature;BME280_humidity;BME280_pressure;Samples;Min_cycle;Max_cycle;Signal;HPM_P1;HPM_P2
2023/12/30 00:01:20;;;;;;;2.22;2.03;;;;;;;2.12;91.06;99640.16;5097403;28;20550;-65
2023/12/30 00:03:50;;;;;;;2.60;2.38;;;;;;;2.15;90.71;99630.19;5096824;28;20052;-65
2023/12/30 00:06:19;;;;;;;10.02;5.35;;;;;;;2.17;90.93;99633.59;5097524;28;20474;-65
2023/12/30 00:08:48;;;;;;;;;;;;;;;2.18;90.35;99627.78;5097580;28;20154;-65
2023/12/30 00:11:17;;;;;;;3.45;1.60;;;;;;;2.13;90.77;99626.78;5096832;28;19927;-66
2023/12/30 00:13:46;;;;;;;2.60;2.10;;;;;;;2.03;91.42;99630.66;5097057;28;20063;-66
2023/12/30 00:16:14;;;;;;;3.90;3.00;;;;;;;1.99;91.13;99628.00;5096785;28;20379;-65
2023/12/30 00:18:45;;;;;;;2.28;2.08;;;;;;;1.99;90.83;99630.50;5096975;28;20082;-65
2023/12/30 00:21:20;;;;;;;4.03;3.67;;;;;;;1.98;90.85;99628.78;5096980;28;20072;-65
2023/12/30 00:23:49;;;;;;;6.88;4.55;;;;;;;1.94;91.10;99624.47;5096902;28;20056;-66
2023/12/30 00:26:21;;;;;;;3.77;3.47;;;;;;;1.92;91.19;99626.09;5096566;28;20047;-66
2023/12/30 00:29:04;;;;;;;4.78;3.85;;;;;;;1.85;91.10;99629.19;5097047;28;20044;-65
2023/12/30 00:31:33;;;;;;;3.85;3.22;;;;;;;1.72;90.70;99622.91;5096727;28;20066;-65
2023/12/30 00:34:04;;;;;;;2.38;2.05;;;;;;;1.74;91.26;99626.34;5096395;28;20383;-65
2023/12/30 00:36:33;;;;;;;3.17;2.92;;;;;;;1.81;91.81;99627.38;5096602;28;20051;-65
2023/12/30 00:39:02;;;;;;;6.27;5.03;;;;;;;1.80;91.73;99620.66;5096268;28;20069;-65
2023/12/30 00:41:31;;;;;;;2.08;1.98;;;;;;;1.83;91.92;99610.69;5096528;28;20044;-66
2023/12/30 00:43:59;;;;;;;4.47;4.10;;;;;;;1.88;92.26;99619.22;5095295;28;20034;-65
2023/12/30 00:46:28;;;;;;;5.77;3.30;;;;;;;1.81;91.30;99618.19;5094712;28;20038;-65
2023/12/30 00:48:57;;;;;;;7.87;7.07;;;;;;;1.73;91.39;99621.22;5095566;28;20269;-65
2023/12/30 00:51:28;;;;;;;2.88;2.45;;;;;;;1.84;92.57;99622.47;5095076;28;20285;-65
2023/12/30 00:53:57;;;;;;;2.03;1.92;;;;;;;1.85;91.67;99621.63;5096347;28;20052;-66
2023/12/30 00:56:26;;;;;;;;;;;;;;;1.74;91.80;99615.41;5096652;28;20103;-65
2023/12/30 00:58:56;;;;;;;2.13;1.92;;;;;;;1.78;92.15;99617.22;5096166;28;20350;-66
2023/12/30 01:01:24;;;;;;;1.15;1.08;;;;;;;1.85;92.61;99609.91;5096458;28;20036;-65
2023/12/30 01:03:54;;;;;;;2.40;2.20;;;;;;;1.77;92.32;99626.44;5095735;28;20113;-65
2023/12/30 01:06:23;;;;;;;1.70;1.60;;;;;;;1.73;91.99;99612.03;5094442;28;20047;-65
2023/12/30 01:08:53;;;;;;;3.03;1.88;;;;;;;1.68;92.60;99605.16;5096066;28;20038;-66
2023/12/30 01:11:22;;;;;;;10.02;4.82;;;;;;;1.60;91.79;99602.41;5095993;28;20070;-66
2023/12/30 01:13:51;;;;;;;2.30;2.10;;;;;;;1.68;92.51;99620.25;5095600;28;20151;-65
2023/12/30 01:16:20;;;;;;;2.58;2.35;;;;;;;1.71;92.78;99610.28;5095825;28;20398;-65
2023/12/30 01:18:49;;;;;;;2.78;2.58;;;;;;;1.75;91.91;99607.91;5094627;28;20563;-66
2023/12/30 01:21:19;;;;;;;7.38;6.28;;;;;;;1.73;92.26;99588.53;5096085;28;20066;-65
2023/12/30 01:23:48;;;;;;;2.92;2.67;;;;;;;1.77;91.96;99607.97;5094367;28;20081;-65
2023/12/30 01:26:18;;;;;;;3.23;2.93;;;;;;;1.80;92.56;99615.63;5095664;28;20108;-65
2023/12/30 01:28:47;;;;;;;2.28;2.10;;;;;;;1.77;92.44;99600.44;5094422;28;20285;-65
2023/12/30 01:31:17;;;;;;;5.90;3.80;;;;;;;1.71;92.83;99605.25;5095275;28;20132;-65
2023/12/30 01:33:46;;;;;;;5.00;3.50;;;;;;;1.72;92.12;99612.84;5094376;28;20039;-65
2023/12/30 01:36:15;;;;;;;3.03;2.78;;;;;;;1.73;92.44;99616.19;5095716;28;20130;-65
2023/12/30 01:38:44;;;;;;;4.22;2.85;;;;;;;1.73;93.06;99603.63;5093870;28;20051;-65
2023/12/30 01:41:13;;;;;;;4.45;4.05;;;;;;;1.76;92.62;99603.75;5095377;28;20066;-65
2023/12/30 01:43:43;;;;;;;4.07;3.78;;;;;;;1.80;92.10;99600.53;5094188;28;20428;-65
2023/12/30 01:46:13;;;;;;;4.97;3.33;;;;;;;1.79;92.68;99611.38;5093953;28;20048;-65
2023/12/30 01:48:43;;;;;;;6.22;3.63;;;;;;;1.71;92.76;99605.25;5095164;28;20044;-65
2023/12/30 01:51:13;;;;;;;;;;;;;;;1.65;92.11;99610.09;5095628;28;20044;-65
2023/12/30 01:53:56;;;;;;;4.32;3.28;;;;;;;1.62;93.00;99609.97;5095198;28;19920;-65
2023/12/30 01:56:26;;;;;;;3.72;2.50;;;;;;;1.58;92.66;99605.66;5094224;28;20062;-65
2023/12/30 01:58:57;;;;;;;3.60;2.47;;;;;;;1.61;92.24;99613.31;5093565;28;20455;-65
2023/12/30 02:01:28;;;;;;;3.45;3.15;;;;;;;1.65;93.01;99605.91;5095029;28;20498;-66
2023/12/30 02:03:57;;;;;;;1.95;1.67;;;;;;;1.63;92.80;99609.19;5094762;28;20052;-67
2023/12/30 02:06:26;;;;;;;5.05;4.03;;;;;;;1.62;92.41;99605.81;5093285;28;20127;-65
2023/12/30 02:08:55;;;;;;;7.30;3.63;;;;;;;1.57;91.82;99606.44;5093516;28;20136;-65
2023/12/30 02:11:24;;;;;;;3.38;3.10;;;;;;;1.57;91.79;99596.38;5093503;28;20051;-65
2023/12/30 02:13:53;;;;;;;2.20;2.05;;;;;;;1.61;92.47;99588.16;5094741;28;20047;-65
2023/12/30 02:16:24;;;;;;;3.97;2.45;;;;;;;1.60;92.46;99576.38;5094685;28;20131;-65
2023/12/30 02:18:52;;;;;;;1.58;1.45;;;;;;;1.67;92.27;99583.31;5093466;28;20040;-65
2023/12/30 02:21:22;;;;;;;4.10;3.10;;;;;;;1.74;91.86;99580.19;5093505;28;20036;-65
2023/12/30 02:23:54;;;;;;;3.20;2.97;;;;;;;1.69;91.86;99571.66;5094574;28;20109;-66
2023/12/30 02:26:24;;;;;;;1.42;1.33;;;;;;;1.78;92.01;99579.47;5094406;28;20064;-65
2023/12/30 02:28:53;;;;;;;4.70;4.30;;;;;;;1.81;92.48;99582.09;5092936;28;20131;-65
2023/12/30 02:31:22;;;;;;;5.28;4.72;;;;;;;1.83;91.81;99588.03;5093141;28;20097;-66
2023/12/30 02:33:50;;;;;;;4.20;3.57;;;;;;;1.84;91.81;99592.28;5092961;28;20501;-66
2023/12/30 02:36:20;;;;;;;5.85;4.65;;;;;;;1.82;92.40;99591.38;5076166;28;20666;-66
2023/12/30 02:38:49;;;;;;;;;;;;;;;1.81;91.83;99594.69;5094432;28;20093;-65
2023/12/30 02:41:19;;;;;;;2.45;2.25;;;;;;;1.79;92.45;99589.59;5094354;28;19920;-65
2023/12/30 02:43:56;;;;;;;4.10;2.65;;;;;;;1.78;91.92;99594.56;5093117;28;20044;-65
2023/12/30 02:46:26;;;;;;;4.00;3.70;;;;;;;1.79;92.39;99594.63;5094066;28;20478;-65
2023/12/30 02:48:55;;;;;;;2.42;2.22;;;;;;;1.80;92.56;99595.50;5093045;28;20040;-65
2023/12/30 02:51:24;;;;;;;3.53;3.20;;;;;;;1.75;92.97;99595.31;5094081;28;20097;-65
2023/12/30 02:53:53;;;;;;;4.03;3.75;;;;;;;1.64;92.41;99593.28;5092895;28;20490;-65
2023/12/30 02:56:24;;;;;;;7.32;4.70;;;;;;;1.57;92.12;99586.34;5092870;28;20052;-65
2023/12/30 02:58:57;;;;;;;3.53;3.22;;;;;;;1.63;92.30;99586.56;5094028;28;20044;-65
2023/12/30 03:01:27;;;;;;;4.40;3.55;;;;;;;1.63;93.10;99586.56;5093656;28;20556;-66
2023/12/30 03:04:00;;;;;;;1.80;1.70;;;;;;;1.67;92.22;99583.31;5093469;28;20394;-67
2023/12/30 03:06:29;;;;;;;7.38;5.13;;;;;;;1.63;92.82;99584.88;5092396;28;20449;-65
2023/12/30 03:08:59;;;;;;;4.63;4.23;;;;;;;1.61;92.93;99583.13;5094168;28;20040;-66
2023/12/30 03:11:29;;;;;;;3.40;3.05;;;;;;;1.62;92.95;99579.78;5092216;28;20044;-66
2023/12/30 03:13:58;;;;;;;2.17;2.05;;;;;;;1.69;92.92;99584.22;5092338;28;20052;-66
2023/12/30 03:16:27;;;;;;;3.47;3.13;;;;;;;1.68;92.24;99585.88;5093443;28;20395;-66
2023/12/30 03:18:56;;;;;;;8.52;4.07;;;;;;;1.65;92.66;99589.97;5092315;28;20433;-66
2023/12/30 03:21:25;;;;;;;7.20;4.60;;;;;;;1.52;92.68;99582.81;5093347;28;20044;-66
2023/12/30 03:23:55;;;;;;;3.35;3.05;;;;;;;1.43;92.94;99574.97;5075590;28;20044;-66
2023/12/30 03:26:24;;;;;;;3.63;1.83;;;;;;;1.42;92.17;99575.78;5093830;28;20562;-66
2023/12/30 03:28:55;;;;;;;3.13;2.85;;;;;;;1.29;92.47;99575.38;5092396;28;20055;-66
2023/12/30 03:31:27;;;;;;;4.05;3.75;;;;;;;1.33;92.11;99572.16;5093300;28;20044;-66
2023/12/30 03:33:57;;;;;;;4.50;4.13;;;;;;;1.27;92.32;99566.91;5093593;28;20047;-66
2023/12/30 03:36:26;;;;;;;11.68;6.47;;;;;;;1.28;92.25;99563.59;5093694;28;20052;-67
2023/12/30 03:38:55;;;;;;;10.23;4.63;;;;;;;1.31;92.13;99578.78;5092300;28;20044;-67
2023/12/30 03:41:25;;;;;;;5.80;3.28;;;;;;;1.30;92.85;99572.03;5093727;28;20123;-67
2023/12/30 03:43:56;;;;;;;4.32;3.60;;;;;;;1.20;91.81;99564.97;5075453;28;20516;-67
2023/12/30 03:46:25;;;;;;;3.80;2.40;;;;;;;1.14;91.78;99572.31;5093557;28;20047;-68
2023/12/30 03:48:54;;;;;;;1.52;1.38;;;;;;;1.12;91.65;99581.47;5093150;28;20036;-68
2023/12/30 03:51:23;;;;;;;3.40;3.10;;;;;;;1.00;92.12;99571.00;5093420;28;20122;-68
2023/12/30 03:53:52;;;;;;;8.02;5.22;;;;;;;1.18;92.19;99586.69;5093501;28;20048;-68
2023/12/30 03:56:21;;;;;;;3.67;3.37;;;;;;;1.20;92.51;99595.13;5075313;28;20051;-68
2023/12/30 03:58:50;;;;;;;6.80;4.80;;;;;;;1.08;92.32;99562.03;5093442;28;20058;-68
2023/12/30 04:01:23;;;;;;;4.88;4.28;;;;;;;1.17;91.98;99585.00;5091932;28;20051;-68
2023/12/30 04:03:52;;;;;;;8.35;5.32;;;;;;;1.13;92.18;99582.31;5091851;28;20075;-68
2023/12/30 04:06:22;;;;;;;2.90;2.70;;;;;;;1.15;92.51;99601.66;5092954;28;20052;-68
2023/12/30 04:08:51;;;;;;;10.52;5.65;;;;;;;1.12;91.58;99606.59;5092101;28;20039;-68
2023/12/30 04:11:20;;;;;;;1.80;1.70;;;;;;;1.09;92.34;99600.59;5092355;28;20478;-68
2023/12/30 04:13:49;;;;;;;8.40;4.93;;;;;;;1.04;91.83;99599.56;5091877;28;20032;-68
2023/12/30 04:16:18;;;;;;;2.17;2.03;;;;;;;0.77;91.44;99555.91;5092097;28;20043;-68
2023/12/30 04:18:49;;;;;;;4.53;3.22;;;;;;;1.05;91.63;99599.66;5092873;28;20123;-68
2023/12/30 04:21:18;;;;;;;4.30;3.90;;;;;;;1.11;92.11;99602.38;5092033;28;20079;-68
2023/12/30 04:23:47;;;;;;;3.23;2.93;;;;;;;1.12;92.15;99609.13;5094567;28;20046;-68
2023/12/30 04:26:16;;;;;;;2.72;2.50;;;;;;;1.07;91.51;99609.75;5095642;28;20134;-68
2023/12/30 04:28:47;;;;;;;5.80;3.03;;;;;;;1.00;91.09;99620.38;5096500;28;20051;-68
2023/12/30 04:31:17;;;;;;;11.23;4.75;;;;;;;1.03;91.30;99623.00;5095603;28;20269;-68
2023/12/30 04:33:46;;;;;;;5.07;4.57;;;;;;;0.99;91.71;99614.50;5096649;28;20036;-68
2023/12/30 04:36:16;;;;;;;3.20;2.40;;;;;;;0.98;92.28;99616.97;5095458;28;20393;-68
2023/12/30 04:38:47;;;;;;;3.03;2.78;;;;;;;0.90;92.10;99606.63;5096571;28;20225;-68
2023/12/30 04:41:16;;;;;;;2.45;1.98;;;;;;;0.97;91.88;99626.16;5095197;28;20047;-68
2023/12/30 04:43:45;;;;;;;2.88;2.67;;;;;;;0.79;91.43;99599.50;5095029;28;20529;-68
2023/12/30 04:46:14;;;;;;;4.22;3.92;;;;;;;0.93;91.84;99619.31;5096445;28;20047;-68
2023/12/30 04:48:43;;;;;;;1.15;1.10;;;;;;;0.88;91.91;99610.75;5096039;28;20071;-68
2023/12/30 04:51:12;;;;;;;11.20;3.85;;;;;;;0.88;91.38;99605.72;5095071;28;20484;-68
2023/12/30 04:53:42;;;;;;;4.00;3.70;;;;;;;0.94;91.63;99595.03;5094739;28;20040;-68
2023/12/30 04:56:16;;;;;;;4.82;4.22;;;;;;;0.98;91.77;99617.81;5094795;28;20280;-68
2023/12/30 04:58:45;;;;;;;27.25;6.00;;;;;;;1.01;91.64;99627.97;5096267;28;20051;-68
2023/12/30 05:01:14;;;;;;;5.63;3.80;;;;;;;0.99;92.30;99634.59;5094982;28;20032;-68
2023/12/30 05:03:43;;;;;;;4.55;3.13;;;;;;;0.90;91.93;99619.19;5094649;28;20097;-68
2023/12/30 05:06:19;;;;;;;5.47;4.97;;;;;;;0.97;92.05;99623.63;5096119;28;20044;-68
2023/12/30 05:08:50;;;;;;;3.10;2.13;;;;;;;0.93;91.36;99621.81;5095746;28;20036;-68
2023/12/30 05:11:19;;;;;;;3.08;2.25;;;;;;;0.87;91.53;99610.69;5095719;28;20132;-68
2023/12/30 05:13:48;;;;;;;5.28;4.38;;;;;;;0.81;91.56;99596.25;5095633;28;20410;-68
2023/12/30 05:16:17;;;;;;;3.47;3.17;;;;;;;0.70;92.38;99600.03;5095858;28;20111;-69
2023/12/30 05:18:46;;;;;;;7.00;6.05;;;;;;;0.65;92.13;99612.41;5095536;28;20586;-68
2023/12/30 05:21:15;;;;;;;4.70;4.32;;;;;;;0.68;92.14;99604.13;5095495;28;20488;-68
2023/12/30 05:23:45;;;;;;;3.72;3.05;;;;;;;0.79;92.68;99595.34;5095500;28;20117;-68
2023/12/30 05:26:15;;;;;;;2.75;2.55;;;;;;;0.72;91.95;99603.44;5095590;28;20079;-68
2023/12/30 05:28:44;;;;;;;1.85;1.73;;;;;;;0.80;92.04;99602.06;5095463;28;20064;-68
2023/12/30 05:31:13;;;;;;;4.57;3.85;;;;;;;0.82;92.41;99599.59;5094209;28;20040;-68
2023/12/30 05:33:42;;;;;;;5.53;5.07;;;;;;;0.84;92.40;99615.63;5095392;28;20040;-68
2023/12/30 05:36:11;;;;;;;7.07;5.03;;;;;;;0.81;92.14;99615.50;5095348;28;20085;-69
2023/12/30 05:38:40;;;;;;;3.95;3.60;;;;;;;0.81;92.57;99618.00;5095558;28;20066;-68
2023/12/30 05:41:09;;;;;;;2.50;2.30;;;;;;;0.83;91.97;99609.72;5095461;28;20032;-69
2023/12/30 05:43:41;;;;;;;4.65;3.55;;;;;;;0.91;92.13;99630.94;5095007;28;20269;-69
2023/12/30 05:46:16;;;;;;;3.75;3.40;;;;;;;0.84;92.27;99629.00;5095434;28;20139;-69
2023/12/30 05:48:45;;;;;;;7.55;4.93;;;;;;;0.79;91.98;99620.47;5095040;28;20039;-69
2023/12/30 05:51:14;;;;;;;6.83;5.27;;;;;;;0.79;92.76;99627.16;5095216;28;20054;-69
2023/12/30 05:53:43;;;;;;;5.80;4.20;;;;;;;0.81;92.00;99638.09;5094871;28;20060;-69
2023/12/30 05:56:12;;;;;;;3.70;3.40;;;;;;;0.82;92.09;99642.31;5094724;28;20044;-69
2023/12/30 05:58:42;;;;;;;2.25;2.15;;;;;;;0.81;91.86;99643.97;5095076;28;20047;-69
2023/12/30 06:01:11;;;;;;;2.13;2.00;;;;;;;0.73;91.87;99637.81;5094829;28;20499;-69
2023/12/30 06:03:40;;;;;;;2.42;2.28;;;;;;;0.79;92.30;99660.66;5094621;28;20487;-69
2023/12/30 06:06:09;;;;;;;3.40;3.13;;;;;;;0.64;91.84;99650.03;5094798;28;20040;-69
2023/12/30 06:08:38;;;;;;;4.68;4.28;;;;;;;0.62;91.97;99671.72;5094913;28;20466;-69
2023/12/30 06:11:08;;;;;;;3.53;3.22;;;;;;;0.46;92.42;99642.63;5094745;28;20086;-69
2023/12/30 06:13:39;;;;;;;7.32;6.50;;;;;;;0.58;92.22;99670.72;5095596;28;20474;-69
2023/12/30 06:16:10;;;;;;;5.78;5.28;;;;;;;0.64;92.41;99665.97;5093521;28;20044;-69
2023/12/30 06:18:39;;;;;;;4.45;3.70;;;;;;;0.56;92.27;99666.44;5094660;28;20047;-69
2023/12/30 06:21:08;;;;;;;5.20;2.67;;;;;;;0.60;92.07;99694.22;5094665;28;20044;-69
2023/12/30 06:23:37;;;;;;;1.13;1.08;;;;;;;0.57;92.32;99673.19;5094492;28;20082;-69
2023/12/30 06:26:06;;;;;;;2.05;1.95;;;;;;;0.65;91.81;99696.91;5094550;28;20580;-69
2023/12/30 06:28:35;;;;;;;3.70;3.40;;;;;;;0.63;91.97;99691.84;5093052;28;20042;-69
2023/12/30 06:31:04;;;;;;;3.13;2.90;;;;;;;0.58;91.60;99685.78;5094134;28;20052;-69
2023/12/30 06:33:34;;;;;;;2.33;2.17;;;;;;;0.64;92.01;99698.59;5094353;28;20075;-69
2023/12/30 06:36:04;;;;;;;3.20;2.97;;;;;;;0.62;91.49;99691.81;5094009;28;20048;-70
2023/12/30 06:38:33;;;;;;;;;;;;;;;0.54;91.70;99694.00;5093451;28;20047;-69
2023/12/30 06:41:06;;;;;;;4.90;4.15;;;;;;;0.57;91.54;99690.75;5094167;28;19920;-69
2023/12/30 06:43:35;;;;;;;4.88;3.35;;;;;;;0.59;91.99;99692.53;5094352;28;20048;-69
2023/12/30 06:46:05;;;;;;;5.55;4.00;;;;;;;0.58;92.04;99705.00;5092302;28;20073;-69
2023/12/30 06:48:35;;;;;;;1.75;1.60;;;;;;;0.52;91.10;99700.63;5094135;28;20555;-69
2023/12/30 06:51:04;;;;;;;3.53;3.08;;;;;;;0.51;91.08;99703.94;5094106;28;20097;-69
2023/12/30 06:53:33;;;;;;;3.50;3.20;;;;;;;0.55;91.64;99694.88;5075681;28;20391;-69
2023/12/30 06:56:02;;;;;;;5.47;2.67;;;;;;;0.68;91.79;99702.06;5075791;28;20044;-69
2023/12/30 06:58:31;;;;;;;4.43;2.55;;;;;;;0.74;91.67;99697.28;5093913;28;20050;-69
2023/12/30 07:01:00;;;;;;;6.38;2.95;;;;;;;0.76;91.27;99705.75;5093587;28;20040;-69
2023/12/30 07:03:29;;;;;;;2.25;2.15;;;;;;;0.79;91.21;99710.88;5091010;28;20052;-69
2023/12/30 07:06:01;;;;;;;4.53;3.25;;;;;;;0.76;91.62;99710.75;5092450;28;20101;-69
2023/12/30 07:08:30;;;;;;;4.28;3.78;;;;;;;0.75;91.33;99709.03;5093519;28;20036;-69
2023/12/30 07:10:59;;;;;;;4.13;3.80;;;;;;;0.81;91.15;99704.25;5093834;28;20032;-69
2023/12/30 07:13:27;;;;;;;4.60;4.20;;;;;;;0.93;91.12;99721.44;5092452;28;20306;-69
2023/12/30 07:15:56;;;;;;;4.93;4.50;;;;;;;1.01;91.32;99723.44;5093399;28;20112;-69
2023/12/30 07:18:25;;;;;;;5.88;5.28;;;;;;;1.08;91.65;99725.38;5092426;28;20276;-69
2023/12/30 07:20:54;;;;;;;10.98;5.32;;;;;;;1.10;91.72;99723.81;5093835;28;20085;-69
2023/12/30 07:23:25;;;;;;;3.88;3.58;;;;;;;1.13;90.83;99723.03;5093550;28;20494;-69
2023/12/30 07:25:53;;;;;;;4.38;3.78;;;;;;;1.14;91.55;99725.63;5092473;28;20402;-69
2023/12/30 07:28:22;;;;;;;9.97;5.30;;;;;;;1.18;91.32;99734.97;5093571;28;20038;-69
2023/12/30 07:30:51;;;;;;;3.07;2.87;;;;;;;1.20;91.25;99750.13;5093341;28;20072;-69
2023/12/30 07:33:21;;;;;;;3.72;3.30;;;;;;;1.22;91.60;99753.56;5092387;28;20040;-68
2023/12/30 07:35:51;;;;;;;3.25;3.03;;;;;;;1.27;90.96;99752.06;5093666;28;20136;-68
2023/12/30 07:38:22;;;;;;;3.53;3.28;;;;;;;1.39;91.75;99756.69;5091903;28;20036;-69
2023/12/30 07:40:52;;;;;;;6.47;5.75;;;;;;;1.44;91.53;99745.13;5093640;28;20044;-69
2023/12/30 07:43:21;;;;;;;5.47;4.95;;;;;;;1.42;91.63;99745.06;5092336;28;20093;-68
2023/12/30 07:45:50;;;;;;;4.72;4.32;;;;;;;1.43;91.72;99753.47;5092317;28;20089;-68
2023/12/30 07:48:19;;;;;;;11.98;7.38;;;;;;;1.40;90.89;99730.72;5093047;28;20093;-68
2023/12/30 07:50:48;;;;;;;5.60;4.20;;;;;;;1.58;91.88;99764.09;5093477;28;20044;-67
2023/12/30 07:53:17;;;;;;;3.58;2.97;;;;;;;1.60;90.94;99768.38;5093326;28;20269;-68
2023/12/30 07:55:44;;;;;;;11.83;5.00;;;;;;;1.70;91.26;99772.06;5093117;28;20040;-67
2023/12/30 07:58:16;;;;;;;5.88;3.20;;;;;;;1.77;91.51;99774.00;5105154;28;20070;-68
2023/12/30 08:00:45;;;;;;;2.17;1.98;;;;;;;1.84;91.53;99778.44;5105574;28;20500;-67
2023/12/30 08:03:16;;;;;;;3.72;3.38;;;;;;;1.82;90.94;99777.53;5113323;28;20055;-68
2023/12/30 08:05:44;;;;;;;3.90;3.50;;;;;;;1.92;91.64;99780.41;5117386;28;20470;-67
2023/12/30 08:08:14;;;;;;;;;;;;;;;1.96;91.16;99776.34;5118399;27;20028;-67
2023/12/30 08:10:42;;;;;;;5.18;3.33;;;;;;;2.00;91.69;99778.16;5116326;28;19995;-67
2023/12/30 08:13:11;;;;;;;14.43;6.88;;;;;;;2.13;91.27;99785.34;5117512;28;20039;-66
2023/12/30 08:15:41;;;;;;;2.17;2.03;;;;;;;2.14;90.90;99784.53;5117498;27;20039;-67
2023/12/30 08:18:11;;;;;;;5.55;3.63;;;;;;;2.14;91.61;99787.03;5111247;27;20375;-66
2023/12/30 08:20:40;;;;;;;3.53;2.78;;;;;;;2.22;91.51;99788.16;5105582;28;20119;-66
2023/12/30 08:23:09;;;;;;;2.92;2.53;;;;;;;2.32;91.57;99792.72;5106318;28;20390;-67
2023/12/30 08:25:38;;;;;;;3.10;2.87;;;;;;;2.44;91.21;99790.59;5106501;28;20032;-65
2023/12/30 08:28:07;;;;;;;5.53;4.13;;;;;;;2.66;90.87;99798.03;5107109;28;20069;-67
2023/12/30 08:30:37;;;;;;;4.63;3.20;;;;;;;2.85;90.95;99799.50;5096426;28;20043;-65
2023/12/30 08:33:09;;;;;;;7.30;5.00;;;;;;;3.07;91.29;99806.91;5096561;28;20044;-65
2023/12/30 08:35:38;;;;;;;3.15;2.90;;;;;;;3.15;91.09;99809.66;5094803;28;20517;-65
2023/12/30 08:38:07;;;;;;;1.83;1.73;;;;;;;3.19;90.45;99808.97;5106640;28;20038;-65
2023/12/30 08:40:36;;;;;;;4.60;4.20;;;;;;;3.36;90.90;99805.25;5116960;28;20138;-65
2023/12/30 08:43:05;;;;;;;11.17;4.23;;;;;;;3.53;90.76;99804.09;5116758;28;20092;-66
2023/12/30 08:45:35;;;;;;;8.52;4.82;;;;;;;3.62;90.54;99799.31;5114460;28;20754;-66
2023/12/30 08:48:05;;;;;;;3.80;2.92;;;;;;;3.55;90.23;99797.41;5097073;28;20074;-65
2023/12/30 08:50:35;;;;;;;;;;;;;;;3.50;89.85;99788.03;5097133;28;20078;-65
2023/12/30 08:53:04;;;;;;;4.82;4.43;;;;;;;3.57;90.25;99784.84;5095958;28;19977;-65
2023/12/30 08:55:33;;;;;;;7.25;6.22;;;;;;;3.62;89.69;99793.41;5096000;28;20044;-65
2023/12/30 08:58:02;;;;;;;4.90;4.35;;;;;;;3.63;89.52;99795.09;5096310;28;20040;-65
2023/12/30 09:00:31;;;;;;;3.05;2.53;;;;;;;3.29;88.86;99757.97;5095728;28;20047;-66
2023/12/30 09:03:00;;;;;;;5.37;4.87;;;;;;;3.45;88.89;99800.50;5095931;28;20062;-65
2023/12/30 09:05:31;;;;;;;5.38;3.10;;;;;;;3.46;89.57;99804.72;5101880;28;20300;-66
2023/12/30 09:08:04;;;;;;;3.63;2.80;;;;;;;3.52;89.02;99791.44;5105363;28;20074;-65
2023/12/30 09:10:33;;;;;;;19.23;6.93;;;;;;;3.43;88.85;99792.03;5103074;28;20134;-66
2023/12/30 09:13:01;;;;;;;2.43;2.17;;;;;;;3.48;89.13;99785.44;5103479;28;20043;-66
2023/12/30 09:15:31;;;;;;;6.28;5.68;;;;;;;3.58;89.06;99789.06;5105100;28;20273;-65
2023/12/30 09:18:00;;;;;;;4.90;4.20;;;;;;;3.68;89.44;99796.97;5099547;28;20036;-65
2023/12/30 09:20:29;;;;;;;5.40;4.15;;;;;;;3.83;89.52;99787.31;5104179;28;20316;-65
2023/12/30 09:22:58;;;;;;;9.07;5.75;;;;;;;3.91;89.60;99787.50;5103260;28;20044;-65
2023/12/30 09:25:29;;;;;;;;;;;;;;;3.94;89.07;99783.38;5095708;28;20039;-65
2023/12/30 09:27:58;;;;;;;5.13;4.72;;;;;;;4.01;89.08;99790.31;5094203;28;20022;-66
2023/12/30 09:30:26;;;;;;;4.63;4.23;;;;;;;4.14;88.77;99794.03;5095320;28;20398;-65
2023/12/30 09:32:55;;;;;;;3.57;2.47;;;;;;;4.25;89.10;99794.31;5095386;28;20036;-66
2023/12/30 09:35:24;;;;;;;9.25;5.45;;;;;;;4.35;88.36;99801.28;5095343;28;20284;-66
2023/12/30 09:37:53;;;;;;;8.13;4.35;;;;;;;4.43;88.49;99790.59;5095509;28;20043;-65
2023/12/30 09:40:22;;;;;;;4.90;4.50;;;;;;;4.41;87.85;99787.16;5095670;28;20516;-65
2023/12/30 09:42:54;;;;;;;4.38;3.97;;;;;;;4.42;88.00;99788.00;5095109;28;20044;-66
2023/12/30 09:45:24;;;;;;;3.67;3.40;;;;;;;4.40;87.25;99784.59;5095357;28;20470;-66
2023/12/30 09:47:55;;;;;;;3.67;3.28;;;;;;;4.37;87.60;99784.50;5095225;28;20036;-65
2023/12/30 09:50:27;;;;;;;2.67;2.47;;;;;;;4.46;87.48;99784.75;5095063;28;20501;-66
2023/12/30 09:52:56;;;;;;;5.47;5.05;;;;;;;4.60;87.71;99763.22;5094016;28;20367;-66
2023/12/30 09:55:25;;;;;;;9.80;4.95;;;;;;;4.75;87.50;99769.47;5093947;28;20039;-65
2023/12/30 09:57:56;;;;;;;2.57;2.37;;;;;;;4.93;87.74;99769.03;5094855;28;20043;-67
2023/12/30 10:00:28;;;;;;;9.38;6.85;;;;;;;5.04;87.89;99762.53;5093285;28;20482;-66
2023/12/30 10:02:58;;;;;;;6.72;4.55;;;;;;;4.99;87.50;99769.16;5094581;28;20491;-65
2023/12/30 10:05:27;;;;;;;5.47;3.38;;;;;;;5.08;87.15;99769.41;5095268;28;20074;-65
2023/12/30 10:07:56;;;;;;;3.42;2.30;;;;;;;5.23;86.84;99766.38;5094272;28;20044;-66
2023/12/30 10:10:41;;;;;;;99.33;91.87;;;;;;;5.33;86.47;99760.66;5094526;28;20375;-66
2023/12/30 10:13:11;;;;;;;3.00;2.70;;;;;;;5.45;86.96;99760.09;5094845;28;20075;-66
2023/12/30 10:15:42;;;;;;;4.45;4.05;;;;;;;5.59;86.74;99756.16;5093645;28;20131;-66
2023/12/30 10:18:13;;;;;;;3.13;2.88;;;;;;;5.78;86.43;99753.16;5094371;28;20384;-65
2023/12/30 10:20:43;;;;;;;5.55;4.47;;;;;;;5.88;86.28;99748.31;5093678;28;20051;-66
2023/12/30 10:23:13;;;;;;;2.60;2.38;;;;;;;5.95;86.07;99759.44;5093060;28;20101;-66
2023/12/30 10:25:42;;;;;;;2.45;1.85;;;;;;;6.06;86.22;99763.00;5093217;28;20036;-65
2023/12/30 10:28:12;;;;;;;3.92;2.92;;;;;;;6.07;85.62;99760.50;5094107;28;20626;-65
2023/12/30 10:30:41;;;;;;;4.97;4.22;;;;;;;6.01;84.49;99752.78;5094218;28;20093;-65
2023/12/30 10:33:11;;;;;;;3.80;3.50;;;;;;;6.23;85.21;99764.16;5094204;28;20111;-64
2023/12/30 10:35:41;;;;;;;3.83;2.42;;;;;;;6.41;85.54;99766.16;5094113;28;20055;-65
2023/12/30 10:38:11;;;;;;;4.93;4.32;;;;;;;6.56;85.06;99757.13;5094238;28;20166;-65
2023/12/30 10:40:40;;;;;;;5.68;4.60;;;;;;;6.55;84.52;99764.72;5094404;28;20127;-65
2023/12/30 10:43:10;;;;;;;6.03;3.25;;;;;;;6.66;84.33;99769.13;5094285;28;20047;-65
2023/12/30 10:45:43;;;;;;;3.45;3.20;;;;;;;6.75;83.64;99759.13;5094333;28;20032;-65
2023/12/30 10:48:13;;;;;;;7.25;3.58;;;;;;;6.69;83.69;99753.94;5094508;28;20139;-65
2023/12/30 10:50:44;;;;;;;8.05;5.80;;;;;;;6.64;82.91;99747.97;5094236;28;20440;-65
2023/12/30 10:53:20;;;;;;;4.20;3.80;;;;;;;6.99;83.02;99752.72;5093953;28;20070;-65
2023/12/30 10:55:54;;;;;;;6.22;5.07;;;;;;;7.02;82.62;99742.63;5094198;28;20044;-64
2023/12/30 10:58:25;;;;;;;2.80;2.50;;;;;;;7.24;82.77;99739.56;5094679;28;20040;-65
2023/12/30 11:01:01;;;;;;;4.85;4.45;;;;;;;7.33;81.83;99740.53;5094173;28;20513;-65
2023/12/30 11:03:32;;;;;;;2.83;2.00;;;;;;;7.36;81.88;99735.50;5093826;28;20055;-65
2023/12/30 11:06:08;;;;;;;2.15;1.77;;;;;;;7.41;81.66;99738.09;5093832;28;20391;-65
2023/12/30 11:08:41;;;;;;;5.78;3.65;;;;;;;7.52;81.66;99730.59;5094036;28;20047;-65
2023/12/30 11:11:12;;;;;;;3.70;3.40;;;;;;;7.55;80.92;99736.56;5093828;28;20040;-65
2023/12/30 11:13:42;;;;;;;7.57;4.38;;;;;;;7.66;81.07;99745.16;5094379;28;20040;-65
2023/12/30 11:16:18;;;;;;;5.78;4.50;;;;;;;7.78;80.27;99745.31;5094267;28;20139;-65
2023/12/30 11:18:49;;;;;;;11.90;4.72;;;;;;;7.81;79.78;99742.81;5093714;28;20082;-65
2023/12/30 11:21:38;;;;;;;4.55;4.15;;;;;;;8.01;80.10;99745.56;5092724;28;20036;-65
2023/12/30 11:24:09;;;;;;;3.42;3.13;;;;;;;8.06;78.98;99739.66;5092758;28;20029;-65
2023/12/30 11:26:41;;;;;;;6.82;3.47;;;;;;;7.98;79.29;99738.75;5093525;28;20551;-65
2023/12/30 11:29:17;;;;;;;3.50;2.85;;;;;;;7.95;79.02;99743.81;5094072;28;20123;-65
2023/12/30 11:31:49;;;;;;;4.60;2.53;;;;;;;7.91;78.76;99747.16;5093352;28;20052;-65
2023/12/30 11:34:19;;;;;;;3.85;3.10;;;;;;;7.92;78.93;99750.53;5097745;28;20105;-65
2023/12/30 11:36:49;;;;;;;3.13;2.83;;;;;;;7.96;79.18;99750.59;5096742;28;20055;-65
2023/12/30 11:39:25;;;;;;;6.80;3.25;;;;;;;7.97;79.35;99742.13;5097703;28;20397;-64
2023/12/30 11:41:57;;;;;;;2.78;2.20;;;;;;;7.84;79.20;99742.84;5097916;28;20036;-64
2023/12/30 11:44:29;;;;;;;5.07;3.53;;;;;;;7.92;79.31;99747.97;5097767;28;20048;-64
2023/12/30 11:46:59;;;;;;;3.28;2.97;;;;;;;8.06;78.70;99741.38;5097529;28;20059;-64
2023/12/30 11:49:29;;;;;;;3.15;2.85;;;;;;;8.12;78.99;99738.88;5097661;28;20040;-64
2023/12/30 11:52:05;;;;;;;13.40;5.47;;;;;;;8.25;79.03;99717.84;5097358;28;20040;-64
2023/12/30 11:54:35;;;;;;;12.70;4.90;;;;;;;8.40;79.04;99717.13;5097411;28;20130;-64
2023/12/30 11:57:07;;;;;;;4.30;2.95;;;;;;;8.50;78.85;99717.22;5097339;28;20102;-65